Time;durP1;ratioP1;P1;durP2;ratioP2;P2;SDS_P1;SDS_P2;PMS_P1;PMS_P2;Temp;Humidity;BMP_temperature;BMP_pressure;BME280_temperature;BME280_humidity;BME280_pressure;Samples;Min_cycle;Max_cycle;Signal;HPM_P1;HPM_P2
2021/08/09 00:02:00;;;;;;;1.12;0.95;;;;;;;16.87;77.49;97431.86;1819606;78;25309;-90
2021/08/09 00:04:27;;;;;;;3.58;1.47;;;;;;;16.88;77.45;97423.14;1791472;78;26225;-86
2021/08/09 00:06:54;;;;;;;3.90;1.47;;;;;;;16.82;77.37;97408.60;1791717;78;25752;-90
2021/08/09 00:09:21;;;;;;;1.27;1.15;;;;;;;16.82;77.49;97386.80;1803641;78;27410;-88
2021/08/09 00:11:48;;;;;;;4.55;1.42;;;;;;;16.84;77.55;97386.01;1811661;78;25816;-91
2021/08/09 00:14:14;;;;;;;2.00;1.25;;;;;;;16.87;77.60;97386.87;1817557;78;25711;-86
2021/08/09 00:16:41;;;;;;;2.67;1.27;;;;;;;16.84;77.53;97379.19;1804257;77;25570;-88
2021/08/09 00:19:08;;;;;;;1.62;1.10;;;;;;;16.85;77.60;97383.57;1813309;78;25657;-86
2021/08/09 00:21:34;;;;;;;3.45;1.45;;;;;;;16.85;77.63;97371.84;1801424;78;27424;-93
2021/08/09 00:24:01;;;;;;;1.40;1.30;;;;;;;16.76;77.48;97360.55;1809521;78;25790;-85
2021/08/09 00:26:29;;;;;;;2.70;1.20;;;;;;;16.75;77.66;97368.45;1813627;78;25292;-87
2021/08/09 00:28:57;;;;;;;2.95;1.50;;;;;;;16.73;77.74;97362.41;1804830;78;26234;-88
2021/08/09 00:31:24;;;;;;;2.65;1.37;;;;;;;16.72;77.84;97342.22;1821402;78;25790;-91
2021/08/09 00:33:50;;;;;;;3.50;1.22;;;;;;;16.72;77.84;97325.87;1794899;78;27422;-85
2021/08/09 00:36:17;;;;;;;4.05;1.40;;;;;;;16.73;77.85;97332.43;1792309;78;25694;-83
2021/08/09 00:38:44;;;;;;;1.62;1.32;;;;;;;16.76;77.85;97334.66;1801691;78;25238;-90
2021/08/09 00:41:11;;;;;;;4.08;1.50;;;;;;;16.79;77.80;97331.94;1824359;78;25753;-89
2021/08/09 00:43:38;;;;;;;1.30;1.20;;;;;;;16.82;77.76;97333.64;1798999;78;25751;-91
2021/08/09 00:46:04;;;;;;;2.40;1.45;;;;;;;16.86;77.67;97342.97;1805953;78;27342;-84
2021/08/09 00:48:34;;;;;;;2.17;1.60;;;;;;;16.89;77.55;97362.09;1824377;78;26315;-84
2021/08/09 00:51:02;;;;;;;4.90;1.50;;;;;;;16.89;77.43;97345.20;1823967;78;25795;-84
2021/08/09 00:53:28;;;;;;;2.10;1.40;;;;;;;16.79;77.39;97349.13;1824252;78;25550;-82
2021/08/09 00:55:55;;;;;;;5.97;1.30;;;;;;;16.69;77.49;97355.80;1795770;78;25807;-83
2021/08/09 00:58:23;;;;;;;3.22;1.35;;;;;;;16.57;77.56;97357.78;1794289;78;27285;-84
2021/08/09 01:00:49;;;;;;;5.22;1.20;;;;;;;16.53;77.81;97356.66;1797818;78;25860;-91
2021/08/09 01:03:16;;;;;;;2.70;1.50;;;;;;;16.54;77.86;97355.58;1804218;78;25837;-92
2021/08/09 01:05:43;;;;;;;1.30;1.20;;;;;;;16.56;77.82;97354.23;1824043;78;26397;-93
2021/08/09 01:08:34;;;;;;;2.22;1.37;;;;;;;16.55;77.75;97349.02;1824457;78;26373;-83
2021/08/09 01:11:26;;;;;;;1.40;1.20;;;;;;;16.51;77.80;97357.44;1809265;78;27495;-84
2021/08/09 01:14:04;;;;;;;7.00;1.52;;;;;;;16.49;77.87;97369.11;1805115;78;25858;-90
2021/08/09 01:16:37;;;;;;;1.45;1.12;;;;;;;16.48;77.98;97385.17;1816769;78;26475;-83
2021/08/09 01:19:18;;;;;;;2.00;1.55;;;;;;;16.52;78.00;97387.70;1812809;78;25726;-93
2021/08/09 01:21:45;;;;;;;3.55;1.70;;;;;;;16.41;77.88;97394.06;1759321;78;25716;-84
2021/08/09 01:24:54;;;;;;;1.95;1.40;;;;;;;16.29;78.01;97411.03;1816833;78;28332;-92
2021/08/09 01:27:30;;;;;;;1.32;1.22;;;;;;;16.27;78.23;97410.45;1811116;78;25718;-89
2021/08/09 01:30:04;;;;;;;2.20;1.45;;;;;;;16.28;78.33;97406.66;1808050;78;25778;-89
2021/08/09 01:32:35;;;;;;;2.52;1.40;;;;;;;16.32;78.37;97413.23;1801472;78;25787;-87
2021/08/09 01:35:05;;;;;;;3.42;1.60;;;;;;;16.34;78.39;97401.03;1796848;78;25569;-94
2021/08/09 01:37:37;;;;;;;5.03;1.57;;;;;;;16.32;78.36;97403.70;1799244;78;28246;-91
2021/08/09 01:40:09;;;;;;;2.35;1.45;;;;;;;16.26;78.39;97404.17;1783806;78;25739;-94
2021/08/09 01:42:38;;;;;;;1.62;1.40;;;;;;;16.14;78.39;97414.32;1804502;78;25785;-94
2021/08/09 01:45:06;;;;;;;4.12;1.60;;;;;;;16.08;78.54;97418.84;1799342;78;25717;-87
2021/08/09 01:47:35;;;;;;;3.60;1.70;;;;;;;16.04;78.58;97425.04;1803463;78;25758;-89
2021/08/09 01:50:04;;;;;;;3.35;1.55;;;;;;;16.02;78.68;97429.36;1824461;77;27487;-92
2021/08/09 01:52:31;;;;;;;2.45;1.20;;;;;;;15.98;78.70;97426.00;1825170;77;26069;-87
2021/08/09 01:54:59;;;;;;;3.10;1.40;;;;;;;15.96;78.78;97441.75;1796727;78;25785;-93
2021/08/09 01:57:27;;;;;;;2.42;1.50;;;;;;;15.95;78.85;97450.98;1799555;78;25368;-93
2021/08/09 01:59:54;;;;;;;1.95;1.50;;;;;;;15.97;79.05;97453.77;1825344;78;25686;-84
2021/08/09 02:02:30;;;;;;;1.95;1.55;;;;;;;15.98;79.03;97459.50;1827246;78;28134;-87
2021/08/09 02:05:10;;;;;;;2.50;1.62;;;;;;;16.01;79.03;97457.66;1785749;78;25718;-87
2021/08/09 02:07:41;;;;;;;3.55;1.67;;;;;;;16.03;78.92;97460.97;1797097;78;26335;-85
2021/08/09 02:10:11;;;;;;;3.00;1.45;;;;;;;16.03;78.74;97465.05;1762583;78;25687;-90
2021/08/09 02:12:58;;;;;;;3.42;1.32;;;;;;;15.96;78.61;97466.25;1796987;78;25805;-85
2021/08/09 02:15:42;;;;;;;2.37;1.32;;;;;;;15.96;78.61;97472.52;1822106;78;28436;-88
2021/08/09 02:18:31;;;;;;;3.40;1.70;;;;;;;15.95;78.57;97477.67;1809006;78;25697;-95
2021/08/09 02:21:03;;;;;;;3.40;1.60;;;;;;;15.95;78.52;97484.48;1787932;78;25252;-85
2021/08/09 02:23:46;;;;;;;3.15;1.62;;;;;;;15.94;78.49;97476.59;1816636;78;25723;-92
2021/08/09 02:26:30;;;;;;;2.70;2.02;;;;;;;15.91;78.43;97484.70;1800252;78;26119;-83
2021/08/09 02:29:02;;;;;;;2.00;1.70;;;;;;;15.89;78.36;97492.28;1796072;78;27220;-88
2021/08/09 02:31:31;;;;;;;4.37;1.92;;;;;;;15.84;78.24;97498.97;1812619;78;25689;-83
2021/08/09 02:33:59;;;;;;;2.35;1.85;;;;;;;15.77;78.29;97504.56;1795818;78;25839;-96
2021/08/09 02:36:26;;;;;;;1.87;1.60;;;;;;;15.73;78.30;97514.81;1785022;78;26360;-82
2021/08/09 02:38:55;;;;;;;5.90;1.75;;;;;;;15.65;78.24;97516.55;1825474;78;25432;-92
2021/08/09 02:41:22;;;;;;;3.50;1.70;;;;;;;15.57;78.28;97529.19;1817625;78;27356;-91
2021/08/09 02:43:48;;;;;;;1.52;1.37;;;;;;;15.50;78.47;97528.73;1797378;78;25675;-85
2021/08/09 02:46:15;;;;;;;1.60;1.50;;;;;;;15.50;78.66;97530.63;1801299;78;25711;-84
2021/08/09 02:48:42;;;;;;;2.70;1.70;;;;;;;15.40;78.58;97536.69;1814719;78;26287;-93
2021/08/09 02:51:11;;;;;;;2.75;1.67;;;;;;;15.31;78.72;97541.38;1802641;78;26646;-87
2021/08/09 02:53:40;;;;;;;3.50;1.87;;;;;;;15.32;78.96;97541.67;1813300;78;27410;-95
2021/08/09 02:56:08;;;;;;;1.70;1.60;;;;;;;15.33;79.01;97545.52;1812659;78;25762;-83
2021/08/09 02:58:35;;;;;;;3.05;1.77;;;;;;;15.37;79.08;97537.16;1817410;78;25647;-83
2021/08/09 03:01:01;;;;;;;1.60;1.50;;;;;;;15.40;78.98;97550.28;1830399;78;25939;-83
2021/08/09 03:03:30;;;;;;;3.72;2.12;;;;;;;15.39;78.91;97552.70;1830806;78;25726;-94
2021/08/09 03:05:59;;;;;;;5.12;1.92;;;;;;;15.38;78.89;97546.97;1826706;78;28183;-83
2021/08/09 03:08:28;;;;;;;4.78;1.87;;;;;;;15.37;78.90;97539.05;1826021;78;25674;-86
2021/08/09 03:10:55;;;;;;;4.78;1.87;;;;;;;15.36;78.78;97540.11;1812420;78;25599;-83
2021/08/09 03:13:24;;;;;;;4.83;1.70;;;;;;;15.33;78.66;97536.53;1825610;78;25229;-92
2021/08/09 03:15:53;;;;;;;4.03;1.82;;;;;;;15.25;78.54;97528.17;1812224;78;25707;-83
2021/08/09 03:18:19;;;;;;;6.28;2.05;;;;;;;15.20;78.58;97540.32;1829177;78;28610;-86
2021/08/09 03:20:46;;;;;;;4.60;1.60;;;;;;;15.20;78.69;97536.24;1821882;78;25677;-95
2021/08/09 03:23:12;;;;;;;3.75;1.90;;;;;;;15.21;78.62;97538.43;1811794;78;25676;-83
2021/08/09 03:25:39;;;;;;;6.45;2.60;;;;;;;15.19;78.51;97535.12;1813034;78;26288;-96
2021/08/09 03:28:07;;;;;;;3.12;2.17;;;;;;;15.08;78.25;97533.53;1826321;78;25789;-89
2021/08/09 03:30:33;;;;;;;5.12;1.60;;;;;;;14.96;78.33;97538.67;1831413;78;27398;-91
2021/08/09 03:33:00;;;;;;;2.65;1.72;;;;;;;14.87;78.57;97535.98;1826540;78;25773;-86
2021/08/09 03:35:27;;;;;;;3.10;1.40;;;;;;;14.88;78.73;97543.07;1810431;78;25644;-92
2021/08/09 03:37:53;;;;;;;5.85;1.80;;;;;;;14.84;78.69;97541.91;1806697;78;25676;-91
2021/08/09 03:40:20;;;;;;;2.58;1.87;;;;;;;14.86;78.87;97545.19;1819861;78;25639;-86
2021/08/09 03:42:47;;;;;;;4.47;1.80;;;;;;;14.89;78.99;97558.31;1829703;78;28167;-87
2021/08/09 03:45:13;;;;;;;3.60;1.50;;;;;;;14.88;78.86;97563.45;1831509;78;25178;-91
2021/08/09 03:47:40;;;;;;;4.33;1.95;;;;;;;14.90;78.79;97568.95;1809287;78;25277;-86
2021/08/09 03:50:08;;;;;;;3.83;2.20;;;;;;;14.91;78.76;97567.07;1824361;78;26352;-83
2021/08/09 03:52:34;;;;;;;5.55;2.10;;;;;;;14.92;78.79;97570.92;1826969;78;25645;-91
2021/08/09 03:55:01;;;;;;;6.53;2.40;;;;;;;14.93;78.83;97562.23;1822917;78;28176;-83
2021/08/09 03:57:28;;;;;;;7.40;1.80;;;;;;;14.93;78.82;97558.16;1822735;78;25742;-93
2021/08/09 03:59:54;;;;;;;7.72;6.17;;;;;;;14.90;78.72;97555.90;1823863;78;25799;-83
2021/08/09 04:02:28;;;;;;;13.65;8.98;;;;;;;14.88;78.74;97549.34;1812758;78;25769;-88
2021/08/09 04:04:50;;;;;;;9.20;8.08;;;;;;;14.84;78.80;97556.86;1796075;78;25360;-86
2021/08/09 04:07:16;;;;;;;10.13;6.92;;;;;;;14.81;78.89;97560.03;1819956;77;28255;-92
2021/08/09 04:09:43;;;;;;;9.53;7.75;;;;;;;14.82;79.01;97560.33;1818186;78;26222;-83
2021/08/09 04:12:09;;;;;;;9.28;7.60;;;;;;;14.83;78.96;97551.95;1824387;78;25899;-82
2021/08/09 04:14:36;;;;;;;10.58;7.03;;;;;;;14.83;78.95;97545.69;1796673;78;25426;-88
2021/08/09 04:17:03;;;;;;;10.82;6.12;;;;;;;14.84;79.02;97540.55;1818027;78;25271;-83
2021/08/09 04:19:29;;;;;;;7.35;5.30;;;;;;;14.85;78.98;97549.83;1816277;78;28136;-83
2021/08/09 04:21:56;;;;;;;7.87;5.67;;;;;;;14.86;78.87;97556.06;1813140;78;25727;-84
2021/08/09 04:24:23;;;;;;;9.00;5.70;;;;;;;14.86;78.84;97564.22;1824989;78;25747;-88
2021/08/09 04:26:49;;;;;;;7.28;5.55;;;;;;;14.88;78.94;97570.25;1827023;78;25868;-82
2021/08/09 04:29:16;;;;;;;6.20;5.00;;;;;;;14.90;78.91;97573.56;1814895;78;25818;-85
2021/08/09 04:31:43;;;;;;;6.00;5.33;;;;;;;14.90;78.93;97579.00;1819575;78;28059;-85
2021/08/09 04:34:10;;;;;;;7.35;5.60;;;;;;;14.90;78.87;97581.19;1819330;78;25695;-83
2021/08/09 04:36:37;;;;;;;6.10;5.50;;;;;;;14.89;78.79;97583.61;1811170;78;25709;-88
2021/08/09 04:39:04;;;;;;;7.75;5.72;;;;;;;14.89;78.83;97595.01;1819605;77;25860;-89
2021/08/09 04:41:30;;;;;;;8.83;5.62;;;;;;;14.86;78.79;97591.39;1804011;78;25775;-96
2021/08/09 04:43:57;;;;;;;9.43;6.25;;;;;;;14.84;78.90;97590.83;1808767;78;28107;-88
2021/08/09 04:46:24;;;;;;;8.13;7.33;;;;;;;14.85;79.00;97587.88;1800854;78;25790;-92
2021/08/09 04:48:51;;;;;;;8.93;7.22;;;;;;;14.89;79.06;97599.09;1798581;78;25750;-82
2021/08/09 04:51:17;;;;;;;9.00;7.17;;;;;;;14.93;79.14;97597.56;1795785;78;25700;-82
2021/08/09 04:53:44;;;;;;;9.35;8.40;;;;;;;14.97;79.17;97597.41;1791593;78;25827;-94
2021/08/09 04:56:11;;;;;;;11.12;10.08;;;;;;;15.01;79.17;97592.60;1829727;78;28305;-82
2021/08/09 04:58:37;;;;;;;18.02;14.23;;;;;;;15.04;79.19;97594.86;1831396;78;25725;-83
2021/08/09 05:01:04;;;;;;;17.12;15.45;;;;;;;15.07;79.23;97597.12;1831363;77;25754;-81
2021/08/09 05:03:39;;;;;;;18.60;15.15;;;;;;;15.11;79.23;97592.02;1829801;78;25420;-81
2021/08/09 05:06:11;;;;;;;17.62;14.98;;;;;;;15.15;79.23;97589.13;1831480;78;26121;-84
2021/08/09 05:08:37;;;;;;;18.27;13.78;;;;;;;15.17;79.19;97587.54;1825760;78;27361;-83
2021/08/09 05:11:04;;;;;;;12.28;11.08;;;;;;;15.18;79.21;97583.23;1811945;78;25248;-85
2021/08/09 05:13:30;;;;;;;11.63;10.05;;;;;;;15.20;79.23;97583.83;1826068;77;25250;-84
2021/08/09 05:15:57;;;;;;;9.70;8.75;;;;;;;15.23;79.25;97584.69;1829681;78;26204;-83
2021/08/09 05:18:24;;;;;;;7.67;6.97;;;;;;;15.26;79.31;97580.14;1831474;78;25774;-82
2021/08/09 05:20:50;;;;;;;8.68;6.67;;;;;;;15.28;79.37;97582.63;1803639;78;27354;-82
2021/08/09 05:23:17;;;;;;;12.28;7.22;;;;;;;15.30;79.44;97584.05;1806021;78;25625;-82
2021/08/09 05:25:43;;;;;;;9.73;6.97;;;;;;;15.30;79.46;97585.41;1800272;78;25883;-82
2021/08/09 05:28:10;;;;;;;8.25;7.15;;;;;;;15.33;79.47;97587.67;1806281;78;25872;-81
2021/08/09 05:30:37;;;;;;;8.35;6.15;;;;;;;15.34;79.47;97582.50;1812877;78;25501;-91
2021/08/09 05:33:05;;;;;;;6.25;5.08;;;;;;;15.37;79.53;97580.67;1787080;77;27368;-84
2021/08/09 05:35:31;;;;;;;8.18;4.45;;;;;;;15.40;79.62;97578.02;1803386;78;25767;-81
2021/08/09 05:37:58;;;;;;;4.17;3.30;;;;;;;15.43;79.74;97575.66;1831568;77;25412;-83
2021/08/09 05:40:25;;;;;;;3.15;2.45;;;;;;;15.50;79.79;97572.27;1825466;78;25408;-84
2021/08/09 05:42:52;;;;;;;6.45;3.15;;;;;;;15.58;79.82;97574.38;1798143;78;25274;-82
2021/08/09 05:45:19;;;;;;;4.70;2.77;;;;;;;15.65;79.87;97580.50;1809220;78;27347;-89
2021/08/09 05:47:45;;;;;;;3.92;2.72;;;;;;;15.70;79.96;97572.43;1819396;78;25702;-82
2021/08/09 05:50:12;;;;;;;4.28;3.17;;;;;;;15.78;79.97;97570.72;1814802;78;25760;-86
2021/08/09 05:52:39;;;;;;;4.90;3.00;;;;;;;15.85;80.02;97571.39;1821264;78;25431;-90
2021/08/09 05:55:08;;;;;;;6.08;2.98;;;;;;;15.89;80.02;97571.22;1803138;78;25704;-91
2021/08/09 05:57:34;;;;;;;5.37;2.62;;;;;;;15.91;79.94;97573.70;1805447;78;27389;-85
2021/08/09 06:00:01;;;;;;;5.05;2.62;;;;;;;15.95;79.94;97571.59;1804364;78;25785;-84
2021/08/09 06:02:28;;;;;;;4.05;2.60;;;;;;;15.98;79.90;97572.48;1811159;78;25772;-83
2021/08/09 06:04:55;;;;;;;3.95;2.80;;;;;;;16.05;79.97;97574.55;1814600;78;25832;-85
2021/08/09 06:07:21;;;;;;;6.58;3.05;;;;;;;16.10;79.94;97569.19;1792905;78;25779;-91
2021/08/09 06:09:48;;;;;;;5.10;2.70;;;;;;;16.15;79.82;97567.94;1817669;78;28127;-83
2021/08/09 06:12:15;;;;;;;6.10;2.85;;;;;;;16.18;79.83;97571.52;1825156;77;25691;-86
2021/08/09 06:14:42;;;;;;;4.10;2.83;;;;;;;16.20;79.83;97563.94;1826564;78;26446;-85
2021/08/09 06:17:08;;;;;;;3.45;2.47;;;;;;;16.25;79.80;97569.20;1825008;78;25738;-84
2021/08/09 06:19:35;;;;;;;4.95;2.47;;;;;;;16.32;79.71;97568.50;1826466;78;25725;-83
2021/08/09 06:22:03;;;;;;;5.85;3.45;;;;;;;16.39;79.56;97573.28;1819065;78;27429;-86
2021/08/09 06:24:30;;;;;;;3.58;2.60;;;;;;;16.44;79.37;97570.09;1808872;78;25844;-86
2021/08/09 06:26:56;;;;;;;6.35;2.72;;;;;;;16.52;79.20;97567.53;1825347;78;25732;-85
2021/08/09 06:29:23;;;;;;;2.77;2.47;;;;;;;16.58;79.10;97572.81;1821662;78;26180;-86
2021/08/09 06:31:49;;;;;;;3.75;2.50;;;;;;;16.64;78.91;97570.22;1817024;78;25770;-85
2021/08/09 06:34:16;;;;;;;3.22;2.40;;;;;;;16.69;78.84;97576.58;1809012;78;28201;-86
2021/08/09 06:36:43;;;;;;;2.75;2.42;;;;;;;16.76;78.80;97574.53;1811393;78;26248;-85
2021/08/09 06:39:11;;;;;;;2.05;1.80;;;;;;;16.81;78.54;97574.60;1803499;78;25724;-86
2021/08/09 06:41:38;;;;;;;1.90;1.70;;;;;;;16.88;78.41;97572.56;1826363;78;25711;-85
2021/08/09 06:44:05;;;;;;;10.32;2.00;;;;;;;16.92;78.37;97577.78;1814591;78;25703;-86
2021/08/09 06:46:31;;;;;;;6.92;2.12;;;;;;;16.97;78.53;97570.77;1810581;78;27318;-85
2021/08/09 06:48:58;;;;;;;4.53;1.95;;;;;;;16.98;78.71;97573.25;1821054;78;25686;-86
2021/08/09 06:51:25;;;;;;;2.77;2.08;;;;;;;17.02;78.80;97584.50;1810900;78;25738;-86
2021/08/09 06:53:51;;;;;;;2.15;1.95;;;;;;;17.08;78.95;97579.41;1819512;78;26463;-86
2021/08/09 06:56:18;;;;;;;2.87;1.82;;;;;;;17.14;78.58;97574.34;1823858;78;25785;-85
2021/08/09 06:58:45;;;;;;;2.98;1.77;;;;;;;17.17;78.64;97572.45;1818190;77;27383;-86
2021/08/09 07:01:11;;;;;;;4.60;1.80;;;;;;;17.24;78.57;97578.58;1826358;78;25814;-86
2021/08/09 07:03:38;;;;;;;2.87;1.80;;;;;;;17.33;78.29;97577.61;1826571;78;25683;-88
2021/08/09 07:06:04;;;;;;;2.27;1.72;;;;;;;17.40;78.15;97576.34;1826516;78;25686;-85
2021/08/09 07:08:31;;;;;;;2.47;1.55;;;;;;;17.47;77.94;97572.92;1823391;78;25698;-86
2021/08/09 07:10:58;;;;;;;3.58;2.17;;;;;;;17.55;77.65;97583.39;1816786;78;27340;-86
2021/08/09 07:13:24;;;;;;;2.60;1.50;;;;;;;17.63;77.73;97580.25;1825116;77;25714;-86
2021/08/09 07:15:51;;;;;;;2.25;1.35;;;;;;;17.73;77.41;97577.40;1825153;78;25776;-87
2021/08/09 07:18:18;;;;;;;1.72;1.50;;;;;;;17.78;77.08;97576.08;1825788;77;25518;-87
2021/08/09 07:20:44;;;;;;;4.58;1.80;;;;;;;17.85;76.92;97574.84;1818218;78;25688;-87
2021/08/09 07:23:11;;;;;;;3.10;1.72;;;;;;;17.94;77.07;97577.41;1822306;78;28076;-87
2021/08/09 07:25:37;;;;;;;1.95;1.40;;;;;;;18.02;76.71;97581.58;1819975;78;25735;-88
2021/08/09 07:28:04;;;;;;;2.12;1.60;;;;;;;18.05;76.24;97567.42;1786189;78;25683;-87
2021/08/09 07:30:31;;;;;;;1.70;1.32;;;;;;;18.12;76.08;97565.84;1806705;78;25694;-88
2021/08/09 07:32:58;;;;;;;1.65;1.40;;;;;;;18.17;75.94;97568.11;1809140;77;25674;-88
2021/08/09 07:35:25;;;;;;;2.50;1.50;;;;;;;18.27;75.69;97564.13;1801578;78;28078;-87
2021/08/09 07:37:52;;;;;;;1.45;1.30;;;;;;;18.39;75.67;97563.15;1814928;78;26322;-87
2021/08/09 07:40:19;;;;;;;1.72;1.30;;;;;;;18.57;75.67;97567.73;1826616;77;25922;-87
2021/08/09 07:42:45;;;;;;;1.25;1.15;;;;;;;18.76;75.53;97568.20;1803628;78;26267;-87
2021/08/09 07:45:12;;;;;;;2.67;1.95;;;;;;;18.97;75.02;97571.39;1802170;78;25703;-88
2021/08/09 07:47:39;;;;;;;2.20;1.60;;;;;;;19.24;74.59;97571.88;1816567;78;27480;-85
2021/08/09 07:50:08;;;;;;;2.72;1.37;;;;;;;19.55;74.49;97571.58;1798479;78;43039;-86
2021/08/09 07:52:34;;;;;;;1.32;1.00;;;;;;;19.90;73.90;97577.80;1810442;78;25754;-87
2021/08/09 07:55:02;;;;;;;1.27;1.17;;;;;;;20.30;73.32;97571.08;1816857;78;25937;-87
2021/08/09 07:57:28;;;;;;;1.55;1.30;;;;;;;20.73;72.75;97580.83;1815416;78;25776;-87
2021/08/09 07:59:55;;;;;;;1.65;1.17;;;;;;;21.19;72.52;97583.07;1829157;78;28268;-86
2021/08/09 08:02:22;;;;;;;1.95;1.30;;;;;;;21.56;72.29;97583.31;1829723;78;25727;-90
2021/08/09 08:04:49;;;;;;;2.70;1.22;;;;;;;21.78;71.50;97581.61;1813266;78;25723;-87
2021/08/09 08:07:16;;;;;;;3.25;1.30;;;;;;;22.13;70.95;97578.77;1820269;78;25681;-85
2021/08/09 08:09:42;;;;;;;1.40;1.05;;;;;;;22.32;70.18;97540.48;1829915;77;25651;-86
2021/08/09 08:12:09;;;;;;;2.00;1.10;;;;;;;22.77;69.86;97578.47;1822364;78;27343;-84
2021/08/09 08:14:36;;;;;;;1.77;1.20;;;;;;;22.99;69.35;97576.09;1811014;78;25648;-88
2021/08/09 08:17:03;;;;;;;1.20;1.10;;;;;;;23.26;68.91;97577.81;1821470;78;25707;-91
2021/08/09 08:19:29;;;;;;;2.12;1.20;;;;;;;23.55;67.79;97583.34;1824676;78;26293;-85
2021/08/09 08:21:56;;;;;;;1.80;1.22;;;;;;;23.86;67.14;97578.91;1816587;78;25269;-87
2021/08/09 08:24:22;;;;;;;2.55;1.20;;;;;;;24.00;66.73;97576.53;1819761;77;28150;-83
2021/08/09 08:26:49;;;;;;;1.22;1.12;;;;;;;24.29;66.19;97575.64;1805732;78;26298;-86
2021/08/09 08:29:16;;;;;;;1.65;1.22;;;;;;;24.62;65.39;97578.80;1757355;80;25711;-90
2021/08/09 08:31:43;;;;;;;1.10;1.10;;;;;;;24.88;64.84;97578.41;1741596;81;25769;-89
2021/08/09 08:34:09;;;;;;;0.98;0.90;;;;;;;25.07;64.21;97575.12;1729855;81;25721;-89
2021/08/09 08:36:36;;;;;;;2.67;1.20;;;;;;;25.37;63.37;97578.73;1758192;81;27336;-87
2021/08/09 08:39:03;;;;;;;1.22;1.10;;;;;;;25.71;63.08;97570.73;1778222;80;25701;-87
2021/08/09 08:41:32;;;;;;;2.10;1.42;;;;;;;26.07;62.03;97568.92;1768445;80;25831;-90
2021/08/09 08:43:59;;;;;;;1.65;0.98;;;;;;;26.22;61.71;97560.02;1788743;80;25386;-86
2021/08/09 08:46:26;;;;;;;0.98;0.88;;;;;;;26.29;60.75;97565.45;1782493;80;25829;-88
2021/08/09 08:48:58;;;;;;;1.60;1.02;;;;;;;26.46;60.25;97566.99;1757596;80;27453;-89
2021/08/09 08:51:25;;;;;;;1.17;0.80;;;;;;;26.76;59.11;97563.30;1757777;80;25759;-87
2021/08/09 08:53:52;;;;;;;1.10;1.00;;;;;;;27.01;58.32;97566.89;1757711;80;25744;-87
2021/08/09 08:56:18;;;;;;;1.12;0.90;;;;;;;27.34;57.96;97563.30;1743250;80;25665;-88
2021/08/09 08:58:45;;;;;;;1.75;1.10;;;;;;;27.72;57.15;97562.91;1737771;81;25736;-89
2021/08/09 09:01:34;;;;;;;1.47;1.37;;;;;;;27.96;56.55;97555.84;1745483;81;27357;-87
2021/08/09 09:04:26;;;;;;;2.45;1.20;;;;;;;28.21;55.84;97554.33;1752211;81;25866;-87
2021/08/09 09:07:08;;;;;;;1.87;1.17;;;;;;;28.49;55.39;97551.30;1757233;80;25759;-85
2021/08/09 09:09:38;;;;;;;1.45;0.95;;;;;;;28.79;55.15;97550.38;1764261;80;25759;-89
2021/08/09 09:12:19;;;;;;;1.32;1.00;;;;;;;28.92;54.18;97546.63;1790356;78;25277;-91
2021/08/09 09:15:02;;;;;;;1.00;0.85;;;;;;;28.96;53.83;97553.17;1743274;81;27441;-91
2021/08/09 09:17:34;;;;;;;2.15;1.02;;;;;;;29.05;53.06;97547.61;1752233;81;26103;-90
2021/08/09 09:20:20;;;;;;;;;;;;;;;29.03;52.73;97550.71;1744437;81;25675;-89
2021/08/09 09:22:47;;;;;;;2.17;1.20;;;;;;;29.10;50.66;97550.23;1763114;81;25795;-89
2021/08/09 09:25:14;;;;;;;0.90;0.90;;;;;;;29.16;51.94;97548.91;1757814;81;25660;-88
2021/08/09 09:27:40;;;;;;;1.82;1.05;;;;;;;29.25;51.55;97555.27;1746588;81;28185;-89
2021/08/09 09:30:29;;;;;;;2.45;1.05;;;;;;;29.21;50.74;97554.88;1746081;81;25716;-91
2021/08/09 09:33:01;;;;;;;2.30;1.10;;;;;;;29.16;51.17;97560.59;1737844;81;25955;-88
2021/08/09 09:35:28;;;;;;;1.92;1.20;;;;;;;29.03;50.40;97552.10;1757823;81;26094;-89
2021/08/09 09:37:56;;;;;;;1.07;0.85;;;;;;;28.80;50.90;97546.46;1747307;81;26162;-88
2021/08/09 09:40:23;;;;;;;1.42;0.82;;;;;;;28.61;50.85;97552.88;1768356;79;28196;-89
2021/08/09 09:42:50;;;;;;;0.90;0.90;;;;;;;28.51;50.75;97554.55;1767087;80;25764;-89
2021/08/09 09:45:29;;;;;;;2.58;1.07;;;;;;;28.50;51.19;97544.02;1761447;79;25653;-90
2021/08/09 09:48:10;;;;;;;1.02;0.88;;;;;;;28.40;50.97;97551.84;1756164;80;25732;-91
2021/08/09 09:50:41;;;;;;;1.00;0.90;;;;;;;28.33;51.20;97552.89;1763472;81;25818;-90
2021/08/09 09:53:22;;;;;;;2.47;0.98;;;;;;;28.24;50.54;97556.47;1760228;81;28263;-91
2021/08/09 09:55:55;;;;;;;1.27;1.00;;;;;;;27.99;50.30;97564.67;1758514;80;25880;-90
2021/08/09 09:58:21;;;;;;;2.10;1.07;;;;;;;27.89;50.24;97560.23;1758186;81;25780;-92
2021/08/09 10:00:49;;;;;;;1.00;0.90;;;;;;;28.09;50.37;97556.88;1761990;79;25696;-90
2021/08/09 10:03:16;;;;;;;3.12;2.62;;;;;;;28.33;50.25;97562.61;1760141;81;26089;-87
2021/08/09 10:05:44;;;;;;;6.30;1.67;;;;;;;28.25;49.74;97563.66;1754760;81;27440;-91
2021/08/09 10:08:16;;;;;;;1.30;0.90;;;;;;;27.83;49.64;97556.77;1762262;80;26054;-87
2021/08/09 10:10:48;;;;;;;;;;;;;;;27.38;50.21;97558.77;1740575;81;25885;-89
2021/08/09 10:13:19;;;;;;;;;;;;;;;27.12;49.52;97559.97;1765773;81;25649;-90
2021/08/09 10:15:55;;;;;;;1.00;0.80;;;;;;;26.74;50.35;97560.84;1752124;81;25818;-89
2021/08/09 10:18:25;;;;;;;1.30;1.20;;;;;;;26.53;51.02;97565.20;1737536;80;27349;-90
2021/08/09 10:20:55;;;;;;;1.37;1.27;;;;;;;26.35;51.72;97568.91;1737262;81;25888;-90
2021/08/09 10:23:46;;;;;;;2.58;1.15;;;;;;;26.19;52.13;97571.98;1762397;79;25788;-89
2021/08/09 10:26:34;;;;;;;1.90;1.10;;;;;;;26.02;52.33;97573.16;1751881;81;26151;-90
2021/08/09 10:29:11;;;;;;;4.15;1.50;;;;;;;26.21;53.11;97573.03;1741898;81;25803;-91
2021/08/09 10:31:41;;;;;;;1.12;1.07;;;;;;;26.45;53.10;97563.15;1758162;80;26729;-89
2021/08/09 10:34:12;;;;;;;2.17;1.05;;;;;;;26.75;52.86;97558.89;1765912;81;25727;-87
2021/08/09 10:37:10;;;;;;;0.98;0.93;;;;;;;26.91;52.58;97565.72;1760435;81;25787;-89
2021/08/09 10:40:00;;;;;;;1.80;1.27;;;;;;;27.06;52.32;97570.91;1761619;81;25830;-89
2021/08/09 10:42:42;;;;;;;1.47;1.10;;;;;;;27.18;51.78;97562.03;1760291;79;25709;-88
2021/08/09 10:45:49;;;;;;;1.35;1.10;;;;;;;27.22;52.02;97563.05;1759652;81;27453;-88
2021/08/09 10:48:44;;;;;;;1.85;1.30;;;;;;;26.94;51.76;97563.72;1729936;81;25793;-92
2021/08/09 10:51:10;;;;;;;1.37;1.27;;;;;;;26.79;52.03;97564.07;1743674;81;25692;-88
2021/08/09 10:53:46;;;;;;;1.42;1.32;;;;;;;26.81;52.18;97566.76;1746931;81;25685;-90
2021/08/09 10:56:48;;;;;;;2.20;1.35;;;;;;;26.86;51.74;97565.27;1742846;81;25773;-87
2021/08/09 10:59:44;;;;;;;2.50;1.30;;;;;;;26.97;51.92;97560.90;1744798;81;28265;-90
2021/08/09 11:02:26;;;;;;;1.25;1.12;;;;;;;27.15;52.31;97569.05;1750433;81;25863;-88
2021/08/09 11:05:21;;;;;;;3.42;1.30;;;;;;;27.31;51.71;97565.88;1737411;81;25773;-87
2021/08/09 11:08:10;;;;;;;1.07;1.00;;;;;;;27.40;51.05;97564.00;1756735;81;25757;-87
2021/08/09 11:11:02;;;;;;;2.60;1.37;;;;;;;27.46;50.67;97571.04;1741102;81;25939;-91
2021/08/09 11:13:39;;;;;;;6.45;2.72;;;;;;;27.53;50.61;97563.90;1740347;81;27372;-88
2021/08/09 11:16:06;;;;;;;2.25;1.25;;;;;;;27.57;50.92;97565.51;1727063;81;25916;-91
2021/08/09 11:18:35;;;;;;;1.72;1.22;;;;;;;27.72;50.54;97562.34;1737148;81;25711;-89
2021/08/09 11:21:07;;;;;;;1.72;1.17;;;;;;;27.83;50.30;97560.11;1743532;81;25544;-92
2021/08/09 11:23:41;;;;;;;1.17;1.07;;;;;;;27.80;50.05;97564.33;1748087;81;25888;-90
2021/08/09 11:26:20;;;;;;;3.95;1.40;;;;;;;27.44;49.73;97558.88;1756144;81;27364;-93
2021/08/09 11:29:05;;;;;;;1.55;1.20;;;;;;;27.27;50.69;97564.89;1746323;80;25269;-94
2021/08/09 11:31:46;;;;;;;1.80;1.20;;;;;;;27.31;50.91;97565.88;1753463;81;25921;-92
2021/08/09 11:34:13;;;;;;;1.72;1.35;;;;;;;27.35;51.38;97562.73;1742978;81;25769;-92
2021/08/09 11:36:42;;;;;;;1.22;1.12;;;;;;;27.39;51.74;97567.34;1755960;80;25736;-90
2021/08/09 11:39:09;;;;;;;1.35;1.10;;;;;;;27.42;51.73;97565.30;1738617;81;27495;-89
2021/08/09 11:41:35;;;;;;;4.15;1.50;;;;;;;27.46;51.09;97571.86;1753487;80;25877;-94
2021/08/09 11:44:07;;;;;;;1.40;1.30;;;;;;;27.35;51.00;97565.51;1736244;81;25227;-92
2021/08/09 11:46:50;;;;;;;;;;;;;;;27.10;50.62;97568.34;1760502;81;26392;-92
2021/08/09 11:49:19;;;;;;;1.17;1.07;;;;;;;26.92;50.90;97563.78;1767400;81;25803;-91